Time;durP1;ratioP1;P1;durP2;ratioP2;P2;SDS_P1;SDS_P2;PMS_P1;PMS_P2;Temp;Humidity;BMP_temperature;BMP_pressure;BME280_temperature;BME280_humidity;BME280_pressure;Samples;Min_cycle;Max_cycle;Signal;HPM_P1;HPM_P2
2022/03/24 00:02:01;;;;;;;31.75;14.23;;;1.40;99.90;;;;;;5037816;28;20414;-73
2022/03/24 00:04:29;;;;;;;26.33;12.73;;;1.40;99.90;;;;;;5038002;28;20034;-73
2022/03/24 00:06:56;;;;;;;26.95;12.93;;;1.40;99.90;;;;;;5037680;28;20024;-73
2022/03/24 00:09:23;;;;;;;27.80;12.93;;;1.40;99.90;;;;;;5038026;28;20029;-73
2022/03/24 00:11:51;;;;;;;25.80;12.23;;;1.30;99.90;;;;;;5038118;28;20022;-73
2022/03/24 00:14:18;;;;;;;31.92;13.48;;;1.30;99.90;;;;;;5037834;28;20103;-73
2022/03/24 00:16:45;;;;;;;26.42;12.35;;;1.30;99.90;;;;;;5036728;28;20317;-73
2022/03/24 00:19:16;;;;;;;27.38;12.45;;;1.30;99.90;;;;;;5036819;28;20028;-73
2022/03/24 00:21:45;;;;;;;26.25;12.32;;;1.20;99.90;;;;;;5036515;28;20014;-73
2022/03/24 00:24:13;;;;;;;26.48;13.05;;;1.20;99.90;;;;;;5019032;28;20033;-73
2022/03/24 00:26:40;;;;;;;28.30;12.60;;;1.20;99.90;;;;;;5036480;28;20025;-73
2022/03/24 00:29:09;;;;;;;25.98;11.80;;;1.10;99.90;;;;;;5037199;28;20060;-73
2022/03/24 00:31:36;;;;;;;31.42;13.75;;;1.00;99.90;;;;;;5019086;28;20099;-73
2022/03/24 00:34:05;;;;;;;25.13;13.00;;;0.90;99.90;;;;;;5036326;28;20182;-73
2022/03/24 00:36:33;;;;;;;27.80;12.90;;;0.90;99.90;;;;;;5036337;28;20021;-74
2022/03/24 00:39:00;;;;;;;29.65;12.02;;;0.90;99.90;;;;;;5037715;28;20444;-73
2022/03/24 00:41:28;;;;;;;26.38;12.43;;;0.80;99.90;;;;;;5019861;28;20030;-73
2022/03/24 00:44:00;;;;;;;28.52;12.98;;;0.90;99.90;;;;;;5037303;28;20021;-73
2022/03/24 00:46:28;;;;;;;27.15;13.13;;;0.90;99.90;;;;;;5037224;28;20032;-73
2022/03/24 00:48:55;;;;;;;31.85;13.75;;;0.90;99.90;;;;;;5020887;28;20112;-73
2022/03/24 00:51:23;;;;;;;26.73;12.43;;;0.90;99.90;;;;;;5041232;28;20017;-73
2022/03/24 00:53:50;;;;;;;28.67;13.48;;;0.90;99.90;;;;;;5022921;28;20025;-73
2022/03/24 00:56:18;;;;;;;28.70;12.98;;;0.90;99.90;;;;;;5023547;28;20048;-73
2022/03/24 00:58:46;;;;;;;32.30;13.38;;;0.90;99.90;;;;;;5040654;28;20324;-73
2022/03/24 01:01:13;;;;;;;26.85;12.95;;;0.90;99.90;;;;;;5022499;28;20349;-73
2022/03/24 01:03:42;;;;;;;29.67;13.93;;;0.80;99.90;;;;;;5040885;28;20456;-73
2022/03/24 01:06:11;;;;;;;31.08;13.52;;;0.80;99.90;;;;;;5021858;28;20121;-73
2022/03/24 01:08:38;;;;;;;29.08;13.77;;;0.70;99.90;;;;;;5040028;28;20033;-73
2022/03/24 01:11:06;;;;;;;26.48;12.73;;;0.70;99.90;;;;;;5021930;28;20032;-73
2022/03/24 01:13:38;;;;;;;30.60;14.63;;;0.70;99.90;;;;;;5022387;28;20017;-73
2022/03/24 01:16:05;;;;;;;27.85;13.18;;;0.70;99.90;;;;;;5032577;28;20055;-73
2022/03/24 01:18:34;;;;;;;26.15;12.30;;;0.70;99.90;;;;;;5040425;28;20022;-73
2022/03/24 01:21:03;;;;;;;25.70;12.82;;;0.70;99.90;;;;;;5022972;28;20033;-73
2022/03/24 01:23:32;;;;;;;25.30;12.52;;;0.60;99.90;;;;;;5040905;28;20045;-73
2022/03/24 01:26:05;;;;;;;27.25;12.82;;;0.60;99.90;;;;;;5040202;28;20076;-73
2022/03/24 01:28:34;;;;;;;25.98;13.07;;;0.60;99.90;;;;;;5040518;28;20325;-73
2022/03/24 01:31:03;;;;;;;30.65;14.60;;;0.60;99.90;;;;;;5040781;28;20079;-73
2022/03/24 01:33:30;;;;;;;27.38;14.90;;;0.50;99.90;;;;;;5019426;28;20050;-73
2022/03/24 01:35:57;;;;;;;30.52;14.10;;;0.50;99.90;;;;;;5021029;28;20485;-73
2022/03/24 01:38:26;;;;;;;28.30;13.93;;;0.50;99.90;;;;;;5019759;28;20104;-73
2022/03/24 01:40:53;;;;;;;28.40;13.05;;;0.50;99.90;;;;;;5019772;28;20041;-73
2022/03/24 01:43:20;;;;;;;31.27;14.45;;;0.40;99.90;;;;;;5019610;28;20022;-73
2022/03/24 01:45:48;;;;;;;29.50;13.63;;;0.40;99.90;;;;;;5020317;28;20100;-73
2022/03/24 01:48:15;;;;;;;30.35;13.73;;;0.40;99.90;;;;;;5018392;28;20026;-73
2022/03/24 01:50:43;;;;;;;27.63;12.50;;;0.30;99.90;;;;;;5018456;28;20084;-73
2022/03/24 01:53:12;;;;;;;28.52;13.00;;;0.30;99.90;;;;;;5020074;28;20025;-73
2022/03/24 01:55:44;;;;;;;34.05;14.10;;;0.20;99.90;;;;;;5018521;28;20026;-73
2022/03/24 01:58:12;;;;;;;28.52;12.98;;;0.20;99.90;;;;;;5019233;28;20030;-73
2022/03/24 02:00:41;;;;;;;29.80;14.23;;;0.20;99.90;;;;;;5018753;28;20022;-73
2022/03/24 02:03:08;;;;;;;30.90;13.73;;;0.20;99.90;;;;;;5019928;28;20360;-73
2022/03/24 02:05:37;;;;;;;33.92;13.88;;;0.20;99.90;;;;;;5020677;28;20022;-73
2022/03/24 02:08:04;;;;;;;28.33;12.98;;;0.20;99.90;;;;;;5020352;28;20018;-73
2022/03/24 02:10:36;;;;;;;29.10;13.68;;;0.10;99.90;;;;;;5018933;28;20376;-73
2022/03/24 02:13:04;;;;;;;33.92;14.68;;;0.10;99.90;;;;;;5020009;28;20101;-73
2022/03/24 02:15:36;;;;;;;28.40;13.63;;;0.00;99.90;;;;;;5019965;28;20441;-73
2022/03/24 02:18:03;;;;;;;28.38;13.95;;;0.00;99.90;;;;;;5019772;28;20026;-73
2022/03/24 02:20:33;;;;;;;31.40;14.85;;;0.00;99.90;;;;;;5020424;28;20124;-73
2022/03/24 02:23:01;;;;;;;30.60;15.25;;;0.00;99.90;;;;;;5018829;28;20076;-73
2022/03/24 02:25:32;;;;;;;30.02;14.40;;;0.00;99.90;;;;;;5017855;28;20030;-73
2022/03/24 02:28:02;;;;;;;29.52;13.45;;;0.00;99.90;;;;;;5019430;28;20026;-73
2022/03/24 02:30:29;;;;;;;27.98;13.70;;;0.00;99.90;;;;;;5019155;28;20465;-73
2022/03/24 02:32:57;;;;;;;33.53;13.82;;;-0.10;99.90;;;;;;5025019;28;20045;-73
2022/03/24 02:35:24;;;;;;;29.58;13.75;;;-0.10;99.90;;;;;;5038415;28;20048;-73
2022/03/24 02:37:51;;;;;;;28.35;13.63;;;-0.20;99.90;;;;;;5038559;28;20025;-73
2022/03/24 02:40:19;;;;;;;32.83;14.05;;;-0.20;99.90;;;;;;5020837;28;20029;-73
2022/03/24 02:42:47;;;;;;;31.33;14.10;;;-0.20;99.90;;;;;;5030726;28;20076;-73
2022/03/24 02:45:15;;;;;;;29.83;13.88;;;-0.20;99.90;;;;;;5039099;28;20072;-73
2022/03/24 02:47:44;;;;;;;33.35;13.98;;;-0.20;99.90;;;;;;5039024;28;20088;-73
2022/03/24 02:50:11;;;;;;;31.85;14.55;;;-0.20;99.90;;;;;;5039238;28;20029;-73
2022/03/24 02:52:39;;;;;;;27.13;13.20;;;-0.20;99.90;;;;;;5020937;28;20025;-73
2022/03/24 02:55:07;;;;;;;35.60;14.77;;;-0.20;99.90;;;;;;5021371;28;20379;-73
2022/03/24 02:57:35;;;;;;;32.90;14.70;;;-0.30;99.90;;;;;;5030851;28;20026;-73
2022/03/24 03:00:03;;;;;;;32.28;14.50;;;-0.30;99.90;;;;;;5038872;28;20322;-73
2022/03/24 03:02:30;;;;;;;31.10;14.02;;;-0.30;99.90;;;;;;5021153;28;20022;-73
2022/03/24 03:04:57;;;;;;;29.33;13.48;;;-0.40;99.90;;;;;;5038790;28;20017;-73
2022/03/24 03:07:25;;;;;;;33.58;14.18;;;-0.40;99.90;;;;;;5038319;28;20025;-73
2022/03/24 03:09:52;;;;;;;28.50;13.60;;;-0.40;99.90;;;;;;5037815;28;20108;-73
2022/03/24 03:12:19;;;;;;;28.13;13.65;;;-0.40;99.90;;;;;;5020374;28;20028;-73
2022/03/24 03:14:47;;;;;;;27.73;13.13;;;-0.30;99.90;;;;;;5037666;28;20068;-73
2022/03/24 03:17:15;;;;;;;31.38;12.93;;;-0.40;99.90;;;;;;5037639;28;20032;-73
2022/03/24 03:19:45;;;;;;;32.75;13.55;;;-0.40;99.90;;;;;;5037849;28;20103;-73
2022/03/24 03:22:14;;;;;;;32.42;13.82;;;-0.40;99.90;;;;;;5037523;28;20035;-73
2022/03/24 03:24:41;;;;;;;31.75;13.95;;;-0.40;99.90;;;;;;5037496;28;20105;-73
2022/03/24 03:27:12;;;;;;;28.42;12.45;;;-0.50;99.90;;;;;;5020500;28;20029;-73
2022/03/24 03:29:40;;;;;;;33.63;14.30;;;-0.50;99.90;;;;;;5039013;28;20475;-73
2022/03/24 03:32:09;;;;;;;32.65;15.15;;;-0.50;99.90;;;;;;5038470;28;20048;-73
2022/03/24 03:34:38;;;;;;;34.50;14.38;;;-0.50;99.90;;;;;;5038220;28;20125;-73
2022/03/24 03:37:05;;;;;;;29.63;13.93;;;-0.50;99.90;;;;;;5020506;28;20033;-73
2022/03/24 03:39:32;;;;;;;29.30;13.60;;;-0.50;99.90;;;;;;5020806;28;20045;-73
2022/03/24 03:41:59;;;;;;;29.27;14.35;;;-0.50;99.90;;;;;;5038073;28;20017;-73
2022/03/24 03:44:27;;;;;;;33.45;14.93;;;-0.50;99.90;;;;;;5038254;28;20022;-73
2022/03/24 03:46:54;;;;;;;35.65;15.20;;;-0.60;99.90;;;;;;5019084;28;20091;-73
2022/03/24 03:49:21;;;;;;;33.67;15.30;;;-0.60;99.90;;;;;;5037747;28;20418;-73
2022/03/24 03:51:49;;;;;;;29.02;14.25;;;-0.60;99.90;;;;;;5018765;28;20091;-73
2022/03/24 03:54:17;;;;;;;34.55;14.60;;;-0.60;99.90;;;;;;5037530;28;20031;-73
2022/03/24 03:56:44;;;;;;;30.23;13.07;;;-0.70;99.90;;;;;;5019316;28;20025;-73
2022/03/24 03:59:11;;;;;;;31.70;13.77;;;-0.60;99.90;;;;;;5037072;28;20032;-73
2022/03/24 04:01:40;;;;;;;32.75;14.02;;;-0.70;99.90;;;;;;5036154;28;20032;-73
2022/03/24 04:04:12;;;;;;;31.20;13.85;;;-0.70;99.90;;;;;;5019299;28;20017;-73
2022/03/24 04:06:41;;;;;;;32.78;14.57;;;-0.70;99.90;;;;;;5036998;28;20021;-73
2022/03/24 04:09:09;;;;;;;29.00;12.95;;;-0.70;99.90;;;;;;5036685;28;20428;-74
2022/03/24 04:11:36;;;;;;;31.50;12.75;;;-0.80;99.90;;;;;;5020106;28;20029;-73
2022/03/24 04:14:04;;;;;;;31.58;13.98;;;-0.80;99.90;;;;;;5037549;28;20025;-73
2022/03/24 04:16:32;;;;;;;28.00;13.23;;;-0.80;99.90;;;;;;5037606;28;20025;-73
2022/03/24 04:18:59;;;;;;;31.90;14.40;;;-0.80;99.90;;;;;;5037657;28;20025;-73
2022/03/24 04:21:27;;;;;;;32.25;14.27;;;-0.80;99.90;;;;;;5037764;28;20021;-73
2022/03/24 04:23:54;;;;;;;30.70;14.68;;;-0.80;99.90;;;;;;5019613;28;20018;-73
2022/03/24 04:26:22;;;;;;;29.65;12.95;;;-0.80;99.90;;;;;;5037439;28;20018;-73
2022/03/24 04:28:51;;;;;;;35.15;15.32;;;-0.80;99.90;;;;;;5035981;28;20386;-73
2022/03/24 04:31:18;;;;;;;40.45;15.30;;;-0.90;99.90;;;;;;5018896;28;20029;-73
2022/03/24 04:33:45;;;;;;;31.67;14.60;;;-0.80;99.90;;;;;;5036183;28;20061;-73
2022/03/24 04:36:12;;;;;;;29.48;13.13;;;-0.90;99.90;;;;;;5018788;28;20029;-73
2022/03/24 04:38:39;;;;;;;32.58;14.55;;;-0.80;99.90;;;;;;5018847;28;20022;-73
2022/03/24 04:41:06;;;;;;;27.83;12.45;;;-0.90;99.90;;;;;;5018803;28;20024;-73
2022/03/24 04:43:34;;;;;;;32.92;13.75;;;-0.90;99.90;;;;;;5036799;28;20418;-73
2022/03/24 04:46:02;;;;;;;33.83;15.45;;;-0.90;99.90;;;;;;5036302;28;20025;-73
2022/03/24 04:48:35;;;;;;;33.10;16.35;;;-1.00;99.90;;;;;;5018903;28;20022;-73
2022/03/24 04:51:07;;;;;;;34.40;14.65;;;-1.00;99.90;;;;;;5036688;28;20022;-73
2022/03/24 04:53:35;;;;;;;40.00;13.63;;;-1.10;99.90;;;;;;5037340;28;20020;-73
2022/03/24 04:56:02;;;;;;;28.85;13.43;;;-1.10;99.90;;;;;;5037106;28;20488;-73
2022/03/24 04:58:30;;;;;;;39.05;15.95;;;-1.10;99.90;;;;;;5019567;28;20049;-73
2022/03/24 05:00:59;;;;;;;34.45;15.40;;;-1.10;99.90;;;;;;5037662;28;20076;-73
2022/03/24 05:03:26;;;;;;;31.70;13.63;;;-1.10;99.90;;;;;;5037025;28;20017;-73
2022/03/24 05:05:54;;;;;;;28.73;13.80;;;-1.10;99.90;;;;;;5030315;28;20026;-73
2022/03/24 05:08:21;;;;;;;32.55;14.60;;;-1.10;99.90;;;;;;5037280;28;20028;-73
2022/03/24 05:10:48;;;;;;;43.42;13.73;;;-1.10;99.90;;;;;;5037236;28;20030;-73
2022/03/24 05:13:16;;;;;;;31.88;13.88;;;-1.10;99.90;;;;;;5036628;28;20021;-73
2022/03/24 05:15:43;;;;;;;32.40;13.90;;;-1.20;99.90;;;;;;5036241;28;20424;-73
2022/03/24 05:18:11;;;;;;;32.65;13.88;;;-1.20;99.90;;;;;;5035841;28;20333;-73
2022/03/24 05:20:38;;;;;;;31.33;14.32;;;-1.20;99.90;;;;;;5036066;28;20109;-73
2022/03/24 05:23:05;;;;;;;35.88;14.75;;;-1.20;99.90;;;;;;5035958;28;20025;-73
2022/03/24 05:25:34;;;;;;;37.83;15.48;;;-1.20;99.90;;;;;;5036705;28;20022;-73
2022/03/24 05:28:04;;;;;;;32.92;14.50;;;-1.20;99.90;;;;;;5035363;28;20036;-73
2022/03/24 05:30:32;;;;;;;34.40;15.10;;;-1.20;99.90;;;;;;5035978;28;20017;-73
2022/03/24 05:32:59;;;;;;;30.08;12.90;;;-1.20;99.90;;;;;;5035565;28;20049;-73
2022/03/24 05:35:27;;;;;;;33.42;13.02;;;-1.20;99.90;;;;;;5036283;28;20116;-73
2022/03/24 05:37:56;;;;;;;31.90;13.85;;;-1.20;99.90;;;;;;5040620;28;20030;-73
2022/03/24 05:40:24;;;;;;;33.60;14.10;;;-1.20;99.90;;;;;;5022781;28;20413;-73
2022/03/24 05:42:51;;;;;;;30.30;13.48;;;-1.10;99.90;;;;;;5040330;28;20028;-73
2022/03/24 05:45:19;;;;;;;26.88;13.38;;;-1.10;99.90;;;;;;5040396;28;20283;-73
2022/03/24 05:47:47;;;;;;;33.53;13.70;;;-1.10;99.90;;;;;;5022547;28;20489;-73
2022/03/24 05:50:14;;;;;;;32.97;14.60;;;-1.10;99.90;;;;;;5040477;28;20317;-73
2022/03/24 05:52:41;;;;;;;44.08;15.48;;;-1.10;99.90;;;;;;5040158;28;20091;-73
2022/03/24 05:55:09;;;;;;;34.40;14.02;;;-1.10;99.90;;;;;;5039116;28;20075;-73
2022/03/24 05:57:38;;;;;;;36.55;13.68;;;-1.00;99.90;;;;;;5021459;28;20021;-73
2022/03/24 06:00:06;;;;;;;33.58;15.77;;;-1.00;99.90;;;;;;5039372;28;20028;-73
2022/03/24 06:02:35;;;;;;;42.47;16.08;;;-0.90;99.90;;;;;;5039167;28;20096;-73
2022/03/24 06:05:09;;;;;;;42.58;16.42;;;-0.90;99.90;;;;;;5038434;28;20080;-73
2022/03/24 06:07:41;;;;;;;46.80;16.83;;;-0.80;99.90;;;;;;5021329;28;20021;-72
2022/03/24 06:10:11;;;;;;;33.47;15.45;;;-0.70;99.90;;;;;;5039064;28;20260;-72
2022/03/24 06:12:39;;;;;;;35.47;14.82;;;-0.70;99.90;;;;;;5038830;28;20033;-72
2022/03/24 06:15:08;;;;;;;33.22;14.85;;;-0.60;99.90;;;;;;5039063;28;20022;-72
2022/03/24 06:17:35;;;;;;;34.53;13.93;;;-0.60;99.90;;;;;;5039418;28;20025;-72
2022/03/24 06:20:03;;;;;;;30.85;14.35;;;-0.50;99.90;;;;;;5040174;28;20302;-72
2022/03/24 06:22:31;;;;;;;41.80;14.48;;;-0.50;99.90;;;;;;5040083;28;20306;-72
2022/03/24 06:24:58;;;;;;;32.83;14.35;;;-0.40;99.90;;;;;;5022215;28;20101;-72
2022/03/24 06:27:27;;;;;;;32.67;14.95;;;-0.40;99.90;;;;;;5040036;28;20091;-72
2022/03/24 06:29:55;;;;;;;35.28;14.88;;;-0.40;99.90;;;;;;5039920;28;20098;-72
2022/03/24 06:32:22;;;;;;;33.78;14.82;;;-0.40;99.90;;;;;;5021480;28;20025;-73
2022/03/24 06:34:51;;;;;;;34.95;15.48;;;-0.30;99.90;;;;;;5021876;28;20030;-73
2022/03/24 06:37:18;;;;;;;31.20;14.18;;;-0.20;99.90;;;;;;5038994;28;20026;-72
2022/03/24 06:39:46;;;;;;;33.95;14.90;;;-0.10;99.90;;;;;;5038577;28;20025;-72
2022/03/24 06:42:13;;;;;;;35.90;15.75;;;-0.10;99.90;;;;;;5020736;28;20026;-74
2022/03/24 06:44:40;;;;;;;35.78;15.80;;;0.00;99.90;;;;;;5038710;28;20087;-73
2022/03/24 06:47:09;;;;;;;31.23;14.50;;;0.20;99.90;;;;;;5038138;28;20382;-73
2022/03/24 06:49:36;;;;;;;39.95;16.55;;;0.30;99.90;;;;;;5038602;28;20053;-73
2022/03/24 06:52:04;;;;;;;35.88;16.20;;;0.40;99.90;;;;;;5038142;28;20053;-74
2022/03/24 06:54:31;;;;;;;31.65;14.95;;;0.50;99.90;;;;;;5038627;28;20029;-73
2022/03/24 06:56:59;;;;;;;36.95;16.33;;;0.60;99.90;;;;;;5020406;28;20116;-72
2022/03/24 06:59:26;;;;;;;38.65;16.77;;;0.70;99.90;;;;;;5039336;28;20101;-73
2022/03/24 07:01:54;;;;;;;42.60;17.30;;;0.80;99.90;;;;;;5038807;28;20325;-72
2022/03/24 07:04:21;;;;;;;36.83;16.58;;;0.90;99.90;;;;;;5039306;28;20028;-73
2022/03/24 07:06:49;;;;;;;35.53;16.50;;;1.00;99.90;;;;;;5038857;28;20112;-77
2022/03/24 07:09:16;;;;;;;43.58;17.38;;;1.10;99.90;;;;;;5021343;28;20041;-72
2022/03/24 07:11:44;;;;;;;34.83;17.30;;;1.20;99.90;;;;;;5039206;28;20025;-72
2022/03/24 07:14:12;;;;;;;38.05;17.02;;;1.30;99.90;;;;;;5038905;28;20381;-77
2022/03/24 07:16:40;;;;;;;37.28;16.70;;;1.40;99.90;;;;;;5038429;28;20026;-71
2022/03/24 07:19:08;;;;;;;41.22;17.20;;;1.60;99.90;;;;;;5037915;28;20022;-72
2022/03/24 07:21:35;;;;;;;46.45;20.50;;;1.70;99.90;;;;;;5038064;28;20422;-71
2022/03/24 07:24:04;;;;;;;43.65;19.38;;;1.80;99.90;;;;;;5037545;28;20030;-71
2022/03/24 07:26:31;;;;;;;34.60;17.05;;;2.00;99.90;;;;;;5038238;28;20314;-72
2022/03/24 07:28:59;;;;;;;40.60;19.65;;;2.10;99.90;;;;;;5037420;28;20422;-73
2022/03/24 07:31:26;;;;;;;40.05;17.70;;;2.30;99.90;;;;;;5037228;28;20032;-73
2022/03/24 07:33:58;;;;;;;52.03;20.52;;;2.40;99.90;;;;;;5016589;28;20045;-71
2022/03/24 07:36:26;;;;;;;37.65;16.73;;;2.50;99.90;;;;;;5017409;28;20030;-71
2022/03/24 07:38:54;;;;;;;43.42;17.20;;;2.70;99.90;;;;;;5017527;28;20093;-71
2022/03/24 07:41:22;;;;;;;35.50;15.63;;;2.80;99.90;;;;;;5018234;28;20168;-71
2022/03/24 07:43:50;;;;;;;36.65;16.58;;;3.00;99.90;;;;;;5017482;28;20024;-71
2022/03/24 07:46:17;;;;;;;32.75;14.90;;;3.20;99.90;;;;;;5018203;28;20018;-70
2022/03/24 07:48:47;;;;;;;34.38;15.85;;;3.40;99.90;;;;;;5018302;28;20433;-71
2022/03/24 07:51:16;;;;;;;37.17;17.27;;;3.50;99.90;;;;;;5018192;28;20021;-71
2022/03/24 07:53:56;;;;;;;34.20;15.73;;;3.70;99.90;;;;;;5018587;28;20077;-70
2022/03/24 07:56:24;;;;;;;38.88;15.93;;;3.80;99.90;;;;;;5016998;28;20049;-71
2022/03/24 07:58:53;;;;;;;36.33;16.92;;;3.90;99.90;;;;;;5017308;28;20018;-71
2022/03/24 08:01:34;;;;;;;35.80;15.98;;;4.10;99.90;;;;;;5015941;28;20026;-71
2022/03/24 08:04:03;;;;;;;40.40;16.02;;;4.20;99.90;;;;;;5016068;28;20037;-71
2022/03/24 08:06:31;;;;;;;31.65;16.60;;;4.40;99.90;;;;;;5017018;28;20030;-74
2022/03/24 08:08:59;;;;;;;31.48;14.30;;;4.50;99.90;;;;;;5016174;28;20125;-71
2022/03/24 08:11:26;;;;;;;31.08;14.27;;;4.70;99.90;;;;;;5017149;28;20101;-80
2022/03/24 08:13:56;;;;;;;29.52;15.27;;;4.80;99.90;;;;;;5015808;28;20080;-70
2022/03/24 08:16:27;;;;;;;31.80;14.98;;;5.00;99.90;;;;;;5017736;28;20057;-69
2022/03/24 08:18:55;;;;;;;33.60;15.68;;;5.20;99.90;;;;;;5017813;28;20109;-69
2022/03/24 08:21:23;;;;;;;32.33;15.50;;;5.30;99.90;;;;;;5017738;28;20026;-69
2022/03/24 08:23:50;;;;;;;32.92;14.90;;;5.50;99.90;;;;;;5016859;28;20030;-71
2022/03/24 08:26:17;;;;;;;33.33;15.25;;;5.60;99.90;;;;;;5016669;28;20022;-70
2022/03/24 08:28:44;;;;;;;34.28;16.05;;;5.80;99.90;;;;;;5017675;28;20018;-70
2022/03/24 08:31:12;;;;;;;32.55;14.95;;;5.90;99.90;;;;;;5017550;28;20418;-71
2022/03/24 08:33:45;;;;;;;33.13;16.50;;;6.10;99.90;;;;;;5030054;28;20136;-70
2022/03/24 08:36:12;;;;;;;32.88;15.02;;;6.20;99.90;;;;;;5037783;28;20033;-70
2022/03/24 08:38:40;;;;;;;41.38;16.10;;;6.40;99.90;;;;;;5037334;28;20018;-71
2022/03/24 08:41:09;;;;;;;34.30;16.05;;;6.50;99.90;;;;;;5037741;28;20087;-71
2022/03/24 08:43:36;;;;;;;30.83;15.98;;;6.70;99.90;;;;;;5037298;28;20024;-70
2022/03/24 08:46:06;;;;;;;28.00;15.25;;;6.80;99.90;;;;;;5037742;28;20096;-70
2022/03/24 08:48:33;;;;;;;33.53;15.48;;;6.90;99.90;;;;;;5037165;28;20116;-70
2022/03/24 08:51:01;;;;;;;34.22;16.60;;;7.10;99.90;;;;;;5019711;28;20029;-70
2022/03/24 08:53:28;;;;;;;35.67;16.13;;;7.20;99.90;;;;;;5036526;28;20413;-71
2022/03/24 08:55:56;;;;;;;38.13;16.10;;;7.40;99.90;;;;;;5037248;28;20032;-70
2022/03/24 08:58:24;;;;;;;32.85;17.27;;;7.40;99.90;;;;;;5019525;28;20033;-71
2022/03/24 09:00:52;;;;;;;36.45;17.35;;;7.60;99.90;;;;;;5037805;28;20013;-70
2022/03/24 09:03:19;;;;;;;37.80;16.70;;;7.70;99.90;;;;;;5037549;28;20022;-71
2022/03/24 09:05:46;;;;;;;30.83;16.17;;;7.80;99.90;;;;;;5037682;28;20018;-71
2022/03/24 09:08:14;;;;;;;37.88;15.25;;;7.90;99.90;;;;;;5037536;28;20029;-71
2022/03/24 09:10:43;;;;;;;35.85;16.05;;;8.00;99.90;;;;;;5040047;28;20068;-70
2022/03/24 09:13:10;;;;;;;35.03;18.38;;;8.10;99.90;;;;;;5041130;28;20017;-70
2022/03/24 09:15:38;;;;;;;37.67;15.88;;;8.30;99.90;;;;;;5041728;28;20032;-71
2022/03/24 09:18:06;;;;;;;34.40;16.65;;;8.30;99.90;;;;;;5040799;28;20065;-70
2022/03/24 09:20:52;;;;;;;33.97;15.80;;;8.40;99.90;;;;;;5040905;28;20421;-70
2022/03/24 09:23:19;;;;;;;34.28;16.23;;;8.50;99.90;;;;;;5041015;28;20045;-72
2022/03/24 09:25:47;;;;;;;34.42;15.95;;;8.70;99.90;;;;;;5040700;28;20021;-68
2022/03/24 09:28:14;;;;;;;49.15;16.67;;;8.80;99.90;;;;;;5040577;28;20030;-69
2022/03/24 09:30:42;;;;;;;33.63;16.95;;;8.80;99.90;;;;;;5040668;28;20145;-66
2022/03/24 09:33:10;;;;;;;37.13;16.25;;;9.00;99.90;;;;;;5040039;28;20057;-66
2022/03/24 09:35:38;;;;;;;34.65;16.08;;;9.10;99.90;;;;;;5039792;28;20116;-66
2022/03/24 09:38:05;;;;;;;39.30;17.67;;;9.10;99.90;;;;;;5040273;28;20052;-67
2022/03/24 09:40:33;;;;;;;31.60;16.27;;;9.20;99.90;;;;;;5022959;28;20435;-65
2022/03/24 09:43:02;;;;;;;29.67;16.33;;;9.40;99.90;;;;;;5040592;28;20053;-65
2022/03/24 09:45:30;;;;;;;29.60;16.63;;;9.50;99.90;;;;;;5040230;28;20045;-67
2022/03/24 09:47:57;;;;;;;31.80;16.63;;;9.60;99.90;;;;;;5040167;28;20147;-66
2022/03/24 09:50:25;;;;;;;33.40;17.38;;;9.70;99.90;;;;;;5040508;28;20133;-67
2022/03/24 09:52:53;;;;;;;31.75;16.58;;;9.90;99.90;;;;;;5022398;28;20060;-66
2022/03/24 09:55:20;;;;;;;32.30;17.02;;;10.00;99.90;;;;;;5006296;28;20026;-66
2022/03/24 09:57:49;;;;;;;38.13;18.60;;;10.20;99.90;;;;;;5040551;28;20021;-66
2022/03/24 10:00:17;;;;;;;39.35;18.40;;;10.30;99.90;;;;;;5040081;28;20045;-68
2022/03/24 10:03:04;;;;;;;29.90;16.67;;;10.40;99.80;;;;;;5039863;28;20406;-68
2022/03/24 10:05:32;;;;;;;31.50;16.02;;;10.50;99.60;;;;;;5022189;28;20108;-68
2022/03/24 10:08:06;;;;;;;35.00;16.30;;;10.60;99.60;;;;;;5022207;28;20025;-68
2022/03/24 10:10:35;;;;;;;31.48;16.02;;;10.70;98.50;;;;;;5022261;28;20418;-68
2022/03/24 10:13:04;;;;;;;36.38;17.23;;;10.90;97.10;;;;;;5039652;28;20036;-73
2022/03/24 10:15:31;;;;;;;28.95;15.13;;;11.00;96.00;;;;;;5039809;28;20044;-68
2022/03/24 10:18:00;;;;;;;32.15;16.50;;;11.10;93.50;;;;;;5038925;28;20029;-68
2022/03/24 10:20:33;;;;;;;33.75;15.57;;;11.30;92.70;;;;;;5039764;28;20049;-68
2022/03/24 10:23:05;;;;;;;25.75;14.95;;;11.50;92.10;;;;;;5039200;28;20026;-68
2022/03/24 10:25:34;;;;;;;28.25;14.18;;;11.50;91.20;;;;;;5039752;28;20096;-68
2022/03/24 10:28:08;;;;;;;29.65;14.27;;;11.70;87.40;;;;;;5039425;28;20329;-68
2022/03/24 10:30:54;;;;;;;22.95;12.75;;;11.80;84.70;;;;;;5021817;28;20083;-68
2022/03/24 10:33:36;;;;;;;23.92;13.50;;;11.90;82.40;;;;;;5039019;28;20361;-68
2022/03/24 10:36:23;;;;;;;30.77;13.65;;;12.00;77.40;;;;;;5039307;28;20048;-68
2022/03/24 10:38:56;;;;;;;29.63;14.40;;;12.10;75.80;;;;;;5039134;28;20044;-68
2022/03/24 10:41:29;;;;;;;25.60;14.15;;;12.20;76.30;;;;;;5039548;28;20112;-68
2022/03/24 10:43:59;;;;;;;24.83;13.18;;;12.30;75.00;;;;;;5039314;28;20018;-68
2022/03/24 10:46:29;;;;;;;25.17;13.80;;;12.40;74.10;;;;;;5039537;28;20048;-71
2022/03/24 10:48:57;;;;;;;25.45;13.23;;;12.50;71.40;;;;;;5039120;28;20017;-70
2022/03/24 10:51:29;;;;;;;23.17;12.27;;;12.60;70.00;;;;;;5039006;28;20053;-72
2022/03/24 10:54:22;;;;;;;23.30;12.55;;;12.70;68.90;;;;;;5021551;28;20026;-68
2022/03/24 10:57:13;;;;;;;28.73;14.50;;;12.70;68.10;;;;;;5039344;28;20104;-68
2022/03/24 10:59:58;;;;;;;23.83;12.77;;;12.80;67.80;;;;;;5038709;28;20045;-68
2022/03/24 11:02:28;;;;;;;26.75;14.50;;;12.90;67.20;;;;;;5038413;28;20076;-69
2022/03/24 11:05:02;;;;;;;23.83;13.52;;;12.90;66.90;;;;;;5039249;28;20105;-66
2022/03/24 11:07:29;;;;;;;23.85;11.98;;;13.00;66.00;;;;;;5038686;28;20120;-67
2022/03/24 11:09:57;;;;;;;25.25;12.70;;;13.10;65.80;;;;;;5021326;28;20079;-67
2022/03/24 11:12:38;;;;;;;24.27;12.60;;;13.20;65.00;;;;;;5021056;28;20083;-67
2022/03/24 11:15:07;;;;;;;24.42;12.70;;;13.40;63.20;;;;;;5038399;28;20029;-68
2022/03/24 11:17:38;;;;;;;25.52;13.07;;;13.50;63.10;;;;;;5021253;28;20061;-68
2022/03/24 11:20:20;;;;;;;25.30;12.60;;;13.60;62.50;;;;;;5038742;28;20032;-68
2022/03/24 11:22:54;;;;;;;25.23;11.65;;;13.60;61.00;;;;;;5021084;28;20337;-68
2022/03/24 11:25:23;;;;;;;21.38;11.57;;;13.70;60.80;;;;;;5020829;28;20104;-68
2022/03/24 11:27:53;;;;;;;19.35;10.77;;;13.70;60.60;;;;;;5038550;28;20033;-68
2022/03/24 11:30:22;;;;;;;22.30;11.38;;;13.70;59.80;;;;;;5038682;28;20439;-72
2022/03/24 11:32:52;;;;;;;17.17;10.05;;;13.70;59.50;;;;;;5016555;28;20500;-67
2022/03/24 11:35:23;;;;;;;20.42;11.10;;;13.80;58.40;;;;;;5018084;28;20053;-67
2022/03/24 11:37:51;;;;;;;19.92;10.52;;;13.90;57.50;;;;;;5018604;28;20318;-68
2022/03/24 11:40:26;;;;;;;21.67;10.23;;;14.00;57.40;;;;;;5018630;28;20029;-67
2022/03/24 11:43:04;;;;;;;17.85;8.55;;;14.00;57.40;;;;;;5018206;28;20014;-68
2022/03/24 11:45:53;;;;;;;20.88;10.23;;;14.10;56.00;;;;;;5018270;28;20028;-68
2022/03/24 11:48:42;;;;;;;17.88;9.88;;;14.20;55.70;;;;;;5018182;28;20030;-68
2022/03/24 11:51:21;;;;;;;20.05;8.77;;;14.20;55.30;;;;;;5017982;28;20022;-68
2022/03/24 11:54:03;;;;;;;21.38;10.20;;;14.30;55.20;;;;;;5018329;28;20076;-68
2022/03/24 11:56:31;;;;;;;18.60;9.95;;;14.40;55.40;;;;;;5018196;28;20057;-68
2022/03/24 11:59:03;;;;;;;27.02;11.27;;;14.50;54.70;;;;;;5019312;28;20026;-67
2022/03/24 12:01:32;;;;;;;22.52;9.45;;;14.50;54.80;;;;;;5018470;28;20327;-68
2022/03/24 12:04:11;;;;;;;26.50;10.25;;;14.50;53.70;;;;;;5018318;28;20473;-68
2022/03/24 12:06:50;;;;;;;22.15;9.45;;;14.60;52.10;;;;;;5018539;28;20034;-67
2022/03/24 12:09:22;;;;;;;25.50;10.15;;;14.70;52.80;;;;;;5018099;28;20029;-67
2022/03/24 12:12:03;;;;;;;23.63;10.43;;;14.70;52.30;;;;;;5018442;28;20338;-67
2022/03/24 12:14:33;;;;;;;18.90;9.70;;;14.80;52.10;;;;;;5018394;28;20026;-68
2022/03/24 12:17:15;;;;;;;17.75;10.00;;;14.80;52.10;;;;;;5016597;28;20034;-67
2022/03/24 12:19:51;;;;;;;18.63;10.43;;;14.90;51.90;;;;;;5018475;28;20021;-67
2022/03/24 12:22:35;;;;;;;24.02;9.68;;;15.00;51.80;;;;;;5017773;28;20061;-67
2022/03/24 12:25:24;;;;;;;17.70;9.43;;;15.00;52.00;;;;;;5018261;28;20474;-67
2022/03/24 12:28:06;;;;;;;22.27;9.88;;;15.10;52.00;;;;;;5017182;28;20034;-67
2022/03/24 12:31:02;;;;;;;25.63;10.43;;;15.10;51.70;;;;;;5017606;28;20017;-68
2022/03/24 12:33:46;;;;;;;21.02;10.13;;;15.20;51.60;;;;;;5027762;28;20499;-68
2022/03/24 12:36:38;;;;;;;19.55;10.13;;;15.20;51.50;;;;;;5037491;28;20032;-67
2022/03/24 12:39:06;;;;;;;26.67;10.57;;;15.30;51.50;;;;;;5037484;28;20029;-67
2022/03/24 12:41:35;;;;;;;19.65;9.88;;;15.30;51.20;;;;;;5037253;28;20071;-67
2022/03/24 12:44:07;;;;;;;18.70;10.10;;;15.30;51.70;;;;;;5037332;28;20036;-68